Time;durP1;ratioP1;P1;durP2;ratioP2;P2;SDS_P1;SDS_P2;PMS_P1;PMS_P2;Temp;Humidity;BMP_temperature;BMP_pressure;BME280_temperature;BME280_humidity;BME280_pressure;Samples;Min_cycle;Max_cycle;Signal;HPM_P1;HPM_P2
2024/02/27 00:01:24;;;;;;;12.75;9.77;;;8.50;81.90;;;;;;4807475;29;20039;-92
2024/02/27 00:03:50;;;;;;;12.23;9.48;;;8.50;82.00;;;;;;4789972;29;20034;-81
2024/02/27 00:06:17;;;;;;;12.57;9.63;;;8.50;81.90;;;;;;4792405;29;20559;-81
2024/02/27 00:08:43;;;;;;;12.75;9.20;;;8.50;81.90;;;;;;4800845;29;20035;-82
2024/02/27 00:11:08;;;;;;;12.25;9.23;;;8.50;81.90;;;;;;4795962;29;20035;-82
2024/02/27 00:13:34;;;;;;;12.77;9.85;;;8.50;81.90;;;;;;4788727;29;20108;-81
2024/02/27 00:16:00;;;;;;;13.23;10.13;;;8.50;81.90;;;;;;4794304;29;20062;-85
2024/02/27 00:18:26;;;;;;;12.75;9.50;;;8.50;81.90;;;;;;4788820;29;20050;-83
2024/02/27 00:20:53;;;;;;;12.40;9.40;;;8.50;81.90;;;;;;4796593;29;20054;-83
2024/02/27 00:23:20;;;;;;;14.55;9.85;;;8.50;81.90;;;;;;4785604;29;20035;-93
2024/02/27 00:25:46;;;;;;;13.77;10.15;;;8.50;81.90;;;;;;4803017;29;20248;-93
2024/02/27 00:28:14;;;;;;;13.88;10.13;;;8.50;82.00;;;;;;4786268;29;20136;-93
2024/02/27 00:30:39;;;;;;;13.13;9.57;;;8.50;82.00;;;;;;4788818;29;20066;-82
2024/02/27 00:33:05;;;;;;;13.57;10.35;;;8.40;81.90;;;;;;4792938;29;20361;-81
2024/02/27 00:35:33;;;;;;;12.68;9.75;;;8.40;81.90;;;;;;4798258;29;20038;-82
2024/02/27 00:38:00;;;;;;;12.40;9.10;;;8.40;82.00;;;;;;4790145;29;20042;-85
2024/02/27 00:40:25;;;;;;;13.93;10.45;;;8.40;81.90;;;;;;4792338;29;20119;-82
2024/02/27 00:42:52;;;;;;;12.68;9.65;;;8.40;81.90;;;;;;4797092;29;20408;-81
2024/02/27 00:45:18;;;;;;;11.60;9.45;;;8.40;81.90;;;;;;4795595;29;20137;-92
2024/02/27 00:47:45;;;;;;;12.80;9.75;;;8.40;81.90;;;;;;4804111;29;20136;-82
2024/02/27 00:50:12;;;;;;;14.20;10.18;;;8.40;81.90;;;;;;4799283;29;20053;-86
2024/02/27 00:52:37;;;;;;;12.68;9.77;;;8.40;81.90;;;;;;4820340;29;20034;-86
2024/02/27 00:55:05;;;;;;;12.57;9.93;;;8.30;81.90;;;;;;4791156;29;20037;-93
2024/02/27 00:57:31;;;;;;;11.50;8.85;;;8.30;82.00;;;;;;4807385;29;20449;-93
2024/02/27 01:00:08;;;;;;;11.52;9.05;;;8.30;81.90;;;;;;4797992;29;20296;-93
2024/02/27 01:02:35;;;;;;;12.25;9.38;;;8.30;81.90;;;;;;4799432;29;20061;-93
2024/02/27 01:05:01;;;;;;;14.15;10.15;;;8.30;82.00;;;;;;4809683;29;20065;-83
2024/02/27 01:07:27;;;;;;;12.55;9.63;;;8.30;81.90;;;;;;4791325;29;20034;-81
2024/02/27 01:09:55;;;;;;;13.32;9.60;;;8.30;81.90;;;;;;4796685;29;20129;-82
2024/02/27 01:12:21;;;;;;;11.57;9.00;;;8.30;82.00;;;;;;4808637;29;20023;-83
2024/02/27 01:14:46;;;;;;;12.98;9.70;;;8.30;81.90;;;;;;4824733;29;20407;-83
2024/02/27 01:17:12;;;;;;;13.13;9.55;;;8.20;81.90;;;;;;4810101;29;20046;-82
2024/02/27 01:19:38;;;;;;;14.00;9.57;;;8.30;82.00;;;;;;4812534;29;20026;-82
2024/02/27 01:22:06;;;;;;;12.32;9.98;;;8.20;81.90;;;;;;4779839;29;20077;-92
2024/02/27 01:24:33;;;;;;;13.68;9.93;;;8.20;81.90;;;;;;4804693;29;20041;-86
2024/02/27 01:26:59;;;;;;;12.77;9.60;;;8.20;81.90;;;;;;4801193;29;20074;-94
2024/02/27 01:29:26;;;;;;;11.70;9.27;;;8.20;81.90;;;;;;4793476;29;20038;-94
2024/02/27 01:31:54;;;;;;;11.95;9.13;;;8.20;81.90;;;;;;4818237;29;20039;-83
2024/02/27 01:34:20;;;;;;;13.60;9.82;;;8.20;81.90;;;;;;4801892;29;20083;-83
2024/02/27 01:36:47;;;;;;;13.30;9.70;;;8.20;81.90;;;;;;4821314;29;20034;-92
2024/02/27 01:39:13;;;;;;;13.95;10.35;;;8.20;81.90;;;;;;4806476;29;20029;-83
2024/02/27 01:41:41;;;;;;;13.50;9.55;;;8.20;81.90;;;;;;4817953;29;20026;-82
2024/02/27 01:44:07;;;;;;;13.98;10.23;;;8.20;81.90;;;;;;4802016;29;20472;-86
2024/02/27 01:46:33;;;;;;;13.75;10.05;;;8.20;81.90;;;;;;4822268;29;20174;-81
2024/02/27 01:48:59;;;;;;;13.52;10.50;;;8.20;81.90;;;;;;4803295;29;20101;-92
2024/02/27 01:51:28;;;;;;;13.70;9.82;;;8.10;81.90;;;;;;4791244;29;20030;-82
2024/02/27 01:53:58;;;;;;;12.98;9.65;;;8.10;81.90;;;;;;4787318;29;20592;-82
2024/02/27 01:56:25;;;;;;;12.93;9.75;;;8.20;82.00;;;;;;4784280;29;20033;-86
2024/02/27 01:58:55;;;;;;;13.65;10.52;;;8.10;82.00;;;;;;4815873;29;20517;-82
2024/02/27 02:01:24;;;;;;;13.13;9.65;;;8.10;81.90;;;;;;4805821;29;20095;-83
2024/02/27 02:03:53;;;;;;;12.90;9.68;;;8.10;81.90;;;;;;4800218;29;20512;-90
2024/02/27 02:06:22;;;;;;;12.38;9.32;;;8.10;81.90;;;;;;4787263;29;20083;-83
2024/02/27 02:08:52;;;;;;;12.98;9.48;;;8.10;81.90;;;;;;4801102;29;20031;-83
2024/02/27 02:11:20;;;;;;;13.38;9.98;;;8.10;81.90;;;;;;4794448;29;20039;-93
2024/02/27 02:13:47;;;;;;;12.38;9.10;;;8.10;81.90;;;;;;4808884;29;20049;-83
2024/02/27 02:16:14;;;;;;;14.07;9.93;;;8.10;81.90;;;;;;4809647;29;20034;-92
2024/02/27 02:18:39;;;;;;;12.70;9.70;;;8.00;81.90;;;;;;4828566;29;20033;-84
2024/02/27 02:21:07;;;;;;;13.43;10.20;;;8.10;82.00;;;;;;4825945;29;20030;-83
2024/02/27 02:23:45;;;;;;;13.55;9.88;;;8.00;81.90;;;;;;4806870;29;20041;-93
2024/02/27 02:26:12;;;;;;;13.05;9.80;;;8.10;81.90;;;;;;4820754;29;20038;-85
2024/02/27 02:28:39;;;;;;;14.45;10.35;;;8.00;81.90;;;;;;4803626;29;20031;-83
2024/02/27 02:31:04;;;;;;;14.40;10.43;;;8.00;81.90;;;;;;4817772;29;20036;-81
2024/02/27 02:33:31;;;;;;;13.73;9.85;;;8.00;81.90;;;;;;4801067;29;20035;-81
2024/02/27 02:35:57;;;;;;;14.13;10.23;;;8.00;81.90;;;;;;4796053;29;20073;-85
2024/02/27 02:38:23;;;;;;;13.65;9.02;;;8.00;82.00;;;;;;4805149;29;20021;-81
2024/02/27 02:40:49;;;;;;;12.73;9.60;;;8.00;81.90;;;;;;4786609;29;20057;-81
2024/02/27 02:43:15;;;;;;;13.32;10.35;;;7.90;81.80;;;;;;4805072;29;20091;-81
2024/02/27 02:45:41;;;;;;;13.43;9.52;;;7.90;81.80;;;;;;4802596;29;20022;-85
2024/02/27 02:48:07;;;;;;;13.63;9.73;;;7.90;81.80;;;;;;4820268;29;20091;-81
2024/02/27 02:50:35;;;;;;;13.57;10.23;;;7.90;81.80;;;;;;4768333;29;1397805;-86
2024/02/27 02:53:01;;;;;;;13.20;9.90;;;7.90;81.90;;;;;;4822805;29;20443;-95
2024/02/27 02:55:28;;;;;;;14.10;9.55;;;7.90;81.90;;;;;;4805206;29;20384;-94
2024/02/27 02:57:55;;;;;;;12.63;8.90;;;7.90;81.90;;;;;;4818703;29;20038;-84
2024/02/27 03:00:20;;;;;;;12.48;9.80;;;7.80;81.80;;;;;;4803167;29;20030;-94
2024/02/27 03:02:46;;;;;;;14.30;10.45;;;7.80;81.80;;;;;;4799489;29;20423;-84
2024/02/27 03:05:13;;;;;;;12.23;9.40;;;7.80;81.90;;;;;;4818605;29;20065;-85
2024/02/27 03:07:40;;;;;;;13.05;10.05;;;7.80;81.90;;;;;;4801482;29;20034;-86
2024/02/27 03:10:08;;;;;;;13.32;9.75;;;7.80;81.90;;;;;;4787377;29;20549;-81
2024/02/27 03:12:39;;;;;;;12.70;9.43;;;7.80;81.90;;;;;;4820682;29;20070;-86
2024/02/27 03:15:06;;;;;;;12.30;8.93;;;7.80;81.90;;;;;;4790531;29;20054;-84
2024/02/27 03:17:33;;;;;;;13.02;9.80;;;7.80;81.90;;;;;;4811481;29;20131;-86
2024/02/27 03:20:05;;;;;;;12.35;8.82;;;7.70;81.90;;;;;;4801568;29;20083;-84
2024/02/27 03:22:35;;;;;;;13.02;9.23;;;7.70;81.90;;;;;;4824919;29;20071;-81
2024/02/27 03:25:05;;;;;;;13.07;9.32;;;7.70;81.90;;;;;;4811567;29;20026;-95
2024/02/27 03:27:32;;;;;;;13.63;9.43;;;7.70;81.90;;;;;;4806576;29;20508;-84
2024/02/27 03:29:58;;;;;;;13.23;9.00;;;7.70;81.90;;;;;;4791364;29;20484;-84
2024/02/27 03:32:26;;;;;;;13.57;9.63;;;7.60;81.90;;;;;;4807196;29;20442;-84
2024/02/27 03:34:51;;;;;;;12.32;9.40;;;7.70;81.90;;;;;;4799392;29;20030;-83
2024/02/27 03:37:17;;;;;;;12.77;9.57;;;7.60;81.80;;;;;;4810518;29;20049;-96
2024/02/27 03:39:43;;;;;;;12.75;9.18;;;7.60;81.80;;;;;;4828233;29;20037;-84
2024/02/27 03:42:09;;;;;;;13.73;9.43;;;7.60;81.80;;;;;;4808373;29;20031;-81
2024/02/27 03:44:36;;;;;;;11.85;8.68;;;7.60;81.90;;;;;;4798634;29;20165;-95
2024/02/27 03:47:04;;;;;;;13.27;9.20;;;7.60;81.90;;;;;;4803602;29;20030;-82
2024/02/27 03:49:30;;;;;;;12.23;9.27;;;7.60;81.90;;;;;;4800301;29;20022;-85
2024/02/27 03:51:55;;;;;;;12.43;9.07;;;7.60;81.90;;;;;;4803598;29;20054;-82
2024/02/27 03:54:21;;;;;;;13.25;9.05;;;7.60;81.90;;;;;;4820388;29;20034;-94
2024/02/27 03:56:47;;;;;;;12.93;9.40;;;7.60;81.90;;;;;;4816394;29;20058;-82
2024/02/27 03:59:14;;;;;;;12.75;9.30;;;7.50;81.80;;;;;;4807796;29;20034;-96
2024/02/27 04:01:40;;;;;;;13.05;9.38;;;7.50;81.90;;;;;;4807683;29;20026;-83
2024/02/27 04:04:08;;;;;;;12.60;9.07;;;7.50;81.90;;;;;;4812243;29;20116;-94
2024/02/27 04:06:34;;;;;;;12.55;8.68;;;7.50;81.90;;;;;;4809832;29;20022;-93
2024/02/27 04:09:01;;;;;;;13.50;9.45;;;7.50;81.90;;;;;;4809042;29;20042;-84
2024/02/27 04:11:27;;;;;;;13.40;9.82;;;7.50;81.90;;;;;;4828421;29;20035;-83
2024/02/27 04:13:54;;;;;;;12.07;9.18;;;7.40;81.90;;;;;;4797910;29;20038;-86
2024/02/27 04:16:20;;;;;;;12.73;9.35;;;7.50;81.90;;;;;;4813358;29;20027;-82
2024/02/27 04:18:47;;;;;;;12.80;9.25;;;7.40;81.90;;;;;;4804788;29;20039;-83
2024/02/27 04:21:14;;;;;;;12.88;9.20;;;7.40;82.50;;;;;;4814849;29;20508;-93
2024/02/27 04:23:39;;;;;;;12.55;8.93;;;7.40;81.90;;;;;;4794832;29;20034;-83
2024/02/27 04:26:06;;;;;;;12.52;8.70;;;7.40;81.90;;;;;;4787741;29;20602;-95
2024/02/27 04:28:32;;;;;;;13.35;9.50;;;7.40;81.90;;;;;;4798890;29;20021;-95
2024/02/27 04:30:57;;;;;;;11.95;9.25;;;7.40;81.90;;;;;;4821352;29;20445;-85
2024/02/27 04:33:24;;;;;;;12.02;8.55;;;7.30;81.90;;;;;;4810318;29;20046;-81
2024/02/27 04:35:50;;;;;;;13.32;9.30;;;7.30;81.90;;;;;;4812704;29;20400;-95
2024/02/27 04:38:16;;;;;;;14.18;9.98;;;7.30;81.90;;;;;;4794748;29;20133;-85
2024/02/27 04:40:44;;;;;;;13.10;9.43;;;7.30;81.90;;;;;;4811912;29;20121;-95
2024/02/27 04:43:10;;;;;;;12.13;9.00;;;7.30;81.90;;;;;;4810388;29;20026;-95
2024/02/27 04:45:36;;;;;;;12.18;9.02;;;7.30;81.90;;;;;;4826688;29;20022;-94
2024/02/27 04:48:04;;;;;;;12.63;8.82;;;7.30;81.90;;;;;;4807105;29;20044;-85
2024/02/27 04:50:33;;;;;;;13.02;9.38;;;7.20;81.90;;;;;;4805680;29;20060;-81
2024/02/27 04:53:02;;;;;;;11.73;9.15;;;7.20;81.90;;;;;;4806926;29;20039;-86
2024/02/27 04:55:29;;;;;;;12.60;9.10;;;7.30;82.00;;;;;;4804577;29;20034;-83
2024/02/27 04:57:55;;;;;;;12.80;9.43;;;7.20;82.00;;;;;;4807814;29;20038;-94
2024/02/27 05:00:21;;;;;;;12.95;9.63;;;7.20;81.90;;;;;;4805272;29;20491;-95
2024/02/27 05:02:47;;;;;;;12.63;9.20;;;7.20;81.90;;;;;;4804860;29;20552;-81
2024/02/27 05:05:14;;;;;;;12.57;9.27;;;7.20;81.90;;;;;;4789441;29;20461;-85
2024/02/27 05:07:39;;;;;;;12.57;9.10;;;7.20;81.90;;;;;;4826074;29;20026;-85
2024/02/27 05:10:07;;;;;;;12.68;8.95;;;7.20;82.00;;;;;;4797989;29;20586;-95
2024/02/27 05:12:33;;;;;;;12.77;9.00;;;7.10;81.90;;;;;;4810567;29;20502;-81
2024/02/27 05:15:04;;;;;;;13.95;9.57;;;7.20;81.90;;;;;;4794518;29;20066;-93
2024/02/27 05:17:33;;;;;;;13.57;9.45;;;7.10;81.90;;;;;;4821664;29;20499;-94
2024/02/27 05:20:00;;;;;;;12.77;9.15;;;7.10;81.90;;;;;;4809418;29;20037;-81
2024/02/27 05:22:26;;;;;;;12.82;9.00;;;7.10;81.90;;;;;;4813882;29;20031;-86
2024/02/27 05:24:53;;;;;;;11.68;8.88;;;7.10;81.90;;;;;;4809699;29;20031;-83
2024/02/27 05:27:19;;;;;;;12.35;8.80;;;7.10;82.00;;;;;;4805711;29;20030;-84
2024/02/27 05:29:45;;;;;;;12.43;9.25;;;7.10;82.00;;;;;;4793685;29;20098;-84
2024/02/27 05:32:11;;;;;;;13.02;9.05;;;7.00;81.90;;;;;;4806358;29;20030;-83
2024/02/27 05:34:37;;;;;;;13.10;9.07;;;7.00;81.90;;;;;;4807051;29;20083;-86
2024/02/27 05:37:03;;;;;;;14.35;9.50;;;7.10;82.00;;;;;;4822788;29;20055;-83
2024/02/27 05:39:30;;;;;;;12.82;9.23;;;7.00;81.90;;;;;;4823042;29;20034;-94
2024/02/27 05:41:55;;;;;;;13.93;9.65;;;7.00;82.00;;;;;;4810409;29;20037;-92
2024/02/27 05:44:21;;;;;;;12.60;9.32;;;7.00;81.90;;;;;;4802596;29;20026;-79
2024/02/27 05:46:52;;;;;;;13.80;9.98;;;7.00;81.90;;;;;;4809538;29;20050;-80
2024/02/27 05:49:21;;;;;;;13.93;9.30;;;7.00;81.90;;;;;;4823156;29;20634;-81
2024/02/27 05:51:47;;;;;;;13.98;9.60;;;7.00;81.90;;;;;;4807028;29;20073;-90
2024/02/27 05:54:13;;;;;;;11.73;8.77;;;7.00;81.90;;;;;;4817730;29;20031;-84
2024/02/27 05:56:43;;;;;;;12.55;9.10;;;6.90;81.90;;;;;;4806418;29;20319;-90
2024/02/27 05:59:11;;;;;;;13.23;8.93;;;7.00;81.90;;;;;;4820812;29;20034;-92
2024/02/27 06:01:38;;;;;;;12.30;9.07;;;6.90;81.90;;;;;;4824790;29;20518;-84
2024/02/27 06:04:04;;;;;;;11.88;8.77;;;6.90;81.90;;;;;;4815930;29;20038;-91
2024/02/27 06:06:32;;;;;;;14.68;9.38;;;6.90;81.90;;;;;;4787953;29;20103;-85
2024/02/27 06:08:58;;;;;;;13.18;9.63;;;6.90;81.90;;;;;;4817222;29;20091;-85
2024/02/27 06:11:24;;;;;;;12.30;9.18;;;6.90;81.90;;;;;;4792564;29;20034;-95
2024/02/27 06:13:50;;;;;;;13.02;9.55;;;6.90;81.90;;;;;;4792076;29;20042;-84
2024/02/27 06:16:16;;;;;;;12.40;9.02;;;6.90;81.90;;;;;;4799573;29;20107;-82
2024/02/27 06:18:48;;;;;;;12.52;8.75;;;6.90;81.90;;;;;;4782089;29;20400;-88
2024/02/27 06:23:59;;;;;;;12.70;8.88;;;6.80;81.90;;;;;;4801207;29;20038;-86
2024/02/27 06:26:26;;;;;;;12.13;8.68;;;6.80;81.90;;;;;;4801044;29;20039;-84
2024/02/27 06:28:54;;;;;;;13.70;9.95;;;6.80;82.00;;;;;;4817468;29;20090;-91
2024/02/27 06:31:21;;;;;;;13.13;9.35;;;6.80;82.00;;;;;;4802809;29;20026;-83
2024/02/27 06:33:47;;;;;;;13.55;9.68;;;6.80;82.00;;;;;;4819759;29;20129;-81
2024/02/27 06:36:13;;;;;;;12.68;8.75;;;6.70;81.90;;;;;;4789257;29;20120;-82
2024/02/27 06:38:38;;;;;;;13.52;9.60;;;6.70;81.90;;;;;;4786089;29;20042;-84
2024/02/27 06:41:04;;;;;;;13.40;9.52;;;6.70;81.90;;;;;;4789262;29;20037;-87
2024/02/27 06:43:33;;;;;;;14.15;9.90;;;6.80;81.90;;;;;;4795385;29;20023;-88
2024/02/27 06:46:05;;;;;;;11.65;8.82;;;6.80;82.00;;;;;;4802003;29;20040;-84
2024/02/27 06:48:32;;;;;;;13.23;9.02;;;6.70;81.90;;;;;;4793017;29;20031;-82
2024/02/27 06:50:59;;;;;;;12.65;9.10;;;6.70;82.00;;;;;;4802479;29;20059;-87
2024/02/27 06:53:25;;;;;;;12.40;9.23;;;6.70;81.90;;;;;;4798183;29;20035;-86
2024/02/27 06:55:50;;;;;;;12.20;8.65;;;6.70;81.90;;;;;;4789326;29;20043;-81
2024/02/27 06:58:16;;;;;;;13.18;9.18;;;6.70;81.90;;;;;;4776003;29;20030;-92
2024/02/27 07:00:42;;;;;;;13.20;9.10;;;6.70;82.00;;;;;;4775038;29;20121;-83
2024/02/27 07:03:08;;;;;;;11.85;8.38;;;6.70;82.00;;;;;;4785371;29;20428;-82
2024/02/27 07:05:34;;;;;;;12.88;8.55;;;6.70;82.00;;;;;;4785690;29;20082;-94
2024/02/27 07:08:00;;;;;;;12.40;9.00;;;6.70;82.00;;;;;;4808000;29;20070;-91
2024/02/27 07:10:26;;;;;;;12.57;8.95;;;6.70;82.00;;;;;;4776693;29;20065;-87
2024/02/27 07:12:52;;;;;;;13.23;9.38;;;6.70;81.90;;;;;;4789226;29;20042;-82
2024/02/27 07:15:17;;;;;;;12.57;8.75;;;6.70;81.90;;;;;;4793518;29;20094;-84
2024/02/27 07:17:43;;;;;;;12.13;8.07;;;6.60;81.90;;;;;;4777642;29;20493;-89
2024/02/27 07:20:11;;;;;;;13.05;8.70;;;6.70;82.00;;;;;;4789344;29;20118;-83
2024/02/27 07:22:36;;;;;;;10.68;8.23;;;6.60;81.90;;;;;;4795567;29;20504;-87
2024/02/27 07:25:02;;;;;;;12.50;8.98;;;6.70;82.00;;;;;;4791769;29;20467;-90
2024/02/27 07:27:28;;;;;;;12.45;8.63;;;6.60;81.90;;;;;;4779911;29;20161;-81
2024/02/27 07:29:56;;;;;;;12.55;8.73;;;6.60;81.90;;;;;;4787387;29;20397;-91
2024/02/27 07:32:23;;;;;;;12.68;9.30;;;6.70;82.00;;;;;;4769956;29;20043;-84
2024/02/27 07:34:49;;;;;;;12.50;8.75;;;6.60;82.60;;;;;;4786769;29;20053;-83
2024/02/27 07:37:15;;;;;;;12.23;8.75;;;6.60;82.00;;;;;;4774225;29;20038;-84
2024/02/27 07:39:41;;;;;;;11.63;8.50;;;6.60;81.90;;;;;;4791519;29;20030;-84
2024/02/27 07:42:08;;;;;;;12.30;8.35;;;6.60;81.90;;;;;;4787673;29;20400;-91
2024/02/27 07:44:33;;;;;;;11.20;7.97;;;6.60;82.00;;;;;;4772998;29;20031;-85
2024/02/27 07:46:59;;;;;;;12.85;8.85;;;6.60;81.90;;;;;;4784120;29;20500;-85
2024/02/27 07:49:26;;;;;;;11.75;8.70;;;6.60;81.90;;;;;;4785344;29;20088;-85
2024/02/27 07:51:53;;;;;;;12.85;8.80;;;6.60;81.90;;;;;;4799795;29;20123;-85
2024/02/27 07:54:21;;;;;;;11.98;8.52;;;6.60;81.90;;;;;;4806843;29;20035;-83
2024/02/27 07:56:47;;;;;;;11.68;8.45;;;6.60;82.00;;;;;;4789411;29;20124;-85
2024/02/27 07:59:13;;;;;;;10.05;8.20;;;6.60;82.30;;;;;;4783582;29;20484;-88
2024/02/27 08:01:39;;;;;;;10.57;8.00;;;6.60;82.00;;;;;;4795778;29;20045;-85
2024/02/27 08:04:04;;;;;;;10.90;8.35;;;6.60;82.00;;;;;;4803292;29;20081;-83
2024/02/27 08:06:31;;;;;;;12.13;8.35;;;6.60;82.00;;;;;;4817778;29;20108;-84
2024/02/27 08:08:58;;;;;;;12.10;8.73;;;6.60;82.00;;;;;;4793828;29;20027;-90
2024/02/27 08:11:26;;;;;;;13.30;9.18;;;6.60;82.00;;;;;;4808198;29;20097;-85
2024/02/27 08:13:54;;;;;;;11.57;8.23;;;6.60;82.00;;;;;;4822469;29;20193;-86
2024/02/27 08:16:23;;;;;;;12.32;8.57;;;6.60;82.00;;;;;;4788362;29;20042;-86
2024/02/27 08:18:49;;;;;;;11.38;8.18;;;6.60;82.00;;;;;;4818559;29;20026;-86
2024/02/27 08:21:14;;;;;;;12.02;8.73;;;6.60;82.00;;;;;;4814873;29;20030;-90
2024/02/27 08:23:41;;;;;;;11.60;8.18;;;6.60;82.00;;;;;;4806505;29;20058;-85
2024/02/27 08:26:09;;;;;;;11.30;8.25;;;6.60;82.00;;;;;;4817029;29;20115;-87
2024/02/27 08:28:34;;;;;;;11.25;8.15;;;6.60;81.90;;;;;;4805415;29;20050;-83
2024/02/27 08:31:03;;;;;;;11.63;8.43;;;6.60;81.90;;;;;;4793906;29;20034;-83
2024/02/27 08:33:30;;;;;;;11.65;8.50;;;6.60;81.90;;;;;;4796784;29;20043;-84
2024/02/27 08:35:56;;;;;;;11.23;8.35;;;6.60;82.00;;;;;;4820351;29;20072;-84
2024/02/27 08:38:22;;;;;;;11.23;8.48;;;6.60;82.00;;;;;;4800733;29;20060;-86
2024/02/27 08:40:48;;;;;;;11.43;8.40;;;6.60;82.00;;;;;;4789760;29;20046;-85
2024/02/27 08:43:14;;;;;;;10.57;8.27;;;6.60;82.00;;;;;;4803523;29;20491;-82
2024/02/27 08:45:43;;;;;;;10.90;8.05;;;6.60;82.00;;;;;;4817788;29;20038;-85
2024/02/27 08:48:11;;;;;;;11.65;8.45;;;6.60;82.00;;;;;;4813395;29;20046;-84
2024/02/27 08:50:37;;;;;;;10.63;7.72;;;6.70;82.10;;;;;;4819280;29;20125;-83
2024/02/27 08:53:03;;;;;;;11.30;8.30;;;6.60;82.00;;;;;;4787860;29;20179;-85
2024/02/27 08:55:31;;;;;;;10.32;8.20;;;6.60;82.00;;;;;;4806177;29;20083;-83
2024/02/27 08:57:57;;;;;;;10.73;7.65;;;6.70;82.00;;;;;;4800221;29;20041;-83
2024/02/27 09:00:23;;;;;;;11.30;8.90;;;6.70;82.00;;;;;;4797913;29;20696;-83
2024/02/27 09:02:49;;;;;;;10.90;8.32;;;6.70;82.00;;;;;;4802731;29;20482;-81
2024/02/27 09:05:15;;;;;;;12.18;8.70;;;6.70;82.00;;;;;;4804256;29;20026;-86
2024/02/27 09:07:41;;;;;;;11.98;8.48;;;6.70;82.00;;;;;;4829840;29;20041;-83
2024/02/27 09:10:11;;;;;;;11.23;7.60;;;6.70;82.00;;;;;;4808167;29;20041;-84
2024/02/27 09:12:39;;;;;;;11.13;8.48;;;6.70;82.00;;;;;;4808033;29;20137;-84
2024/02/27 09:15:05;;;;;;;11.65;8.88;;;6.80;82.10;;;;;;4792322;29;20034;-84
2024/02/27 09:17:31;;;;;;;12.43;8.60;;;6.70;81.90;;;;;;4798798;29;20060;-85
2024/02/27 09:19:58;;;;;;;11.45;8.60;;;6.80;82.00;;;;;;4813044;29;20044;-87
2024/02/27 09:22:24;;;;;;;12.38;9.10;;;6.70;81.90;;;;;;4823004;29;20063;-82
2024/02/27 09:24:50;;;;;;;10.80;8.00;;;6.80;82.00;;;;;;4802100;29;20483;-83
2024/02/27 09:27:15;;;;;;;11.70;8.48;;;6.80;82.00;;;;;;4815035;29;20038;-84
2024/02/27 09:29:43;;;;;;;12.00;8.60;;;6.80;82.10;;;;;;4816717;29;20039;-82
2024/02/27 09:32:10;;;;;;;12.38;8.80;;;6.90;82.10;;;;;;4822064;29;20038;-83
2024/02/27 09:34:36;;;;;;;12.23;8.63;;;6.90;82.00;;;;;;4811518;29;20535;-86
2024/02/27 09:37:02;;;;;;;11.02;8.60;;;6.90;82.10;;;;;;4803997;29;20034;-82
2024/02/27 09:39:29;;;;;;;12.00;8.88;;;6.90;82.10;;;;;;4828359;29;20049;-83
2024/02/27 09:42:12;;;;;;;12.40;8.85;;;6.90;82.70;;;;;;4829016;29;20027;-87
2024/02/27 09:44:40;;;;;;;11.65;8.43;;;7.00;82.10;;;;;;4831928;29;20066;-82
2024/02/27 09:47:10;;;;;;;11.63;8.32;;;7.00;82.10;;;;;;4813310;29;20026;-82
2024/02/27 09:49:39;;;;;;;13.25;9.38;;;7.00;82.10;;;;;;4808372;29;20034;-88
2024/02/27 09:52:28;;;;;;;12.55;9.00;;;7.00;82.10;;;;;;4832112;29;20147;-82
2024/02/27 09:54:57;;;;;;;13.40;9.00;;;7.00;82.10;;;;;;4817516;29;20034;-82
2024/02/27 09:57:26;;;;;;;13.02;9.25;;;7.00;82.10;;;;;;4803541;29;20483;-87
2024/02/27 09:59:53;;;;;;;12.40;9.13;;;7.10;82.10;;;;;;4821472;29;20046;-87
2024/02/27 10:02:19;;;;;;;11.43;8.73;;;7.10;82.10;;;;;;4817171;29;20113;-83
2024/02/27 10:04:49;;;;;;;13.43;9.63;;;7.10;82.10;;;;;;4804717;29;20121;-83
2024/02/27 10:07:18;;;;;;;11.23;8.45;;;7.20;82.10;;;;;;4808083;29;20133;-85
2024/02/27 10:09:45;;;;;;;13.40;9.45;;;7.20;82.10;;;;;;4833282;29;20034;-82
2024/02/27 10:12:13;;;;;;;11.55;8.70;;;7.20;82.10;;;;;;4813783;29;20031;-82
2024/02/27 10:14:42;;;;;;;11.30;8.50;;;7.20;82.10;;;;;;4832647;29;20034;-83
2024/02/27 10:17:09;;;;;;;12.25;8.88;;;7.30;82.20;;;;;;4821621;29;20117;-83
2024/02/27 10:19:35;;;;;;;11.73;8.95;;;7.30;82.10;;;;;;4802739;29;20038;-83
2024/02/27 10:22:03;;;;;;;11.63;9.13;;;7.30;82.10;;;;;;4821869;29;20030;-87
2024/02/27 10:24:29;;;;;;;12.43;9.38;;;7.30;82.10;;;;;;4802714;29;20033;-85
2024/02/27 10:26:58;;;;;;;12.05;8.98;;;7.40;82.20;;;;;;4791865;29;20043;-88
2024/02/27 10:29:26;;;;;;;12.57;8.98;;;7.40;82.20;;;;;;4801289;29;20103;-83
2024/02/27 10:31:53;;;;;;;12.25;9.02;;;7.40;82.20;;;;;;4813358;29;20039;-88
2024/02/27 10:34:26;;;;;;;11.60;8.93;;;7.50;82.20;;;;;;4827346;29;20035;-83
2024/02/27 10:37:02;;;;;;;11.60;9.10;;;7.50;82.20;;;;;;4807364;29;20073;-85
2024/02/27 10:39:35;;;;;;;11.80;8.68;;;7.50;82.20;;;;;;4812477;29;20042;-82
2024/02/27 10:42:01;;;;;;;10.88;8.70;;;7.50;82.10;;;;;;4814629;29;20074;-86
2024/02/27 10:44:28;;;;;;;11.88;8.60;;;7.60;82.20;;;;;;4833813;29;20487;-82
2024/02/27 10:46:58;;;;;;;11.98;9.00;;;7.60;82.20;;;;;;4834116;29;20030;-87
2024/02/27 10:49:23;;;;;;;11.55;8.18;;;7.60;82.10;;;;;;4824894;29;20022;-82
2024/02/27 10:51:51;;;;;;;11.85;9.80;;;7.70;82.10;;;;;;4811223;29;20053;-83
2024/02/27 10:54:17;;;;;;;13.38;9.32;;;7.70;82.10;;;;;;4792494;29;20043;-87
2024/02/27 10:56:45;;;;;;;12.95;9.20;;;7.80;82.10;;;;;;4815952;29;20022;-84
2024/02/27 10:59:15;;;;;;;12.30;8.70;;;7.80;82.10;;;;;;4796929;29;20082;-83
2024/02/27 11:01:45;;;;;;;12.45;8.77;;;7.80;82.10;;;;;;4800278;29;20046;-87
2024/02/27 11:04:20;;;;;;;13.15;9.25;;;7.80;82.10;;;;;;4812672;29;20033;-83
2024/02/27 11:06:52;;;;;;;11.52;8.75;;;7.90;82.10;;;;;;4814513;29;20156;-84
2024/02/27 11:09:32;;;;;;;10.85;8.90;;;7.90;82.10;;;;;;4813501;29;20507;-87
2024/02/27 11:12:09;;;;;;;11.85;9.05;;;7.90;82.10;;;;;;4808455;29;20035;-87
2024/02/27 11:14:39;;;;;;;10.77;8.90;;;7.90;82.10;;;;;;4810172;29;20150;-83
2024/02/27 11:17:16;;;;;;;11.63;9.05;;;8.00;82.10;;;;;;4791171;29;20102;-84
2024/02/27 11:19:48;;;;;;;10.63;8.38;;;8.10;82.20;;;;;;4801652;29;20117;-83
2024/02/27 11:22:25;;;;;;;11.23;9.02;;;8.10;82.10;;;;;;4799600;29;20030;-83
2024/02/27 11:24:52;;;;;;;10.85;7.90;;;8.10;82.10;;;;;;4808057;29;20042;-83
2024/02/27 11:27:23;;;;;;;11.68;8.38;;;8.10;82.00;;;;;;4818217;29;20038;-88
2024/02/27 11:29:51;;;;;;;11.43;8.60;;;8.20;82.00;;;;;;4808495;29;20045;-83
2024/02/27 11:32:19;;;;;;;11.80;8.50;;;8.20;82.20;;;;;;4833033;29;20034;-84
2024/02/27 11:34:47;;;;;;;11.35;8.65;;;8.20;82.00;;;;;;4812421;29;20030;-87
2024/02/27 11:37:20;;;;;;;11.32;8.57;;;8.30;82.10;;;;;;4801633;29;20037;-88
2024/02/27 11:39:47;;;;;;;11.05;8.50;;;8.30;82.00;;;;;;4828427;29;20034;-83
2024/02/27 11:42:25;;;;;;;11.00;8.40;;;8.30;81.90;;;;;;4828437;29;20037;-86
2024/02/27 11:45:16;;;;;;;10.57;8.40;;;8.40;81.90;;;;;;4830700;29;20030;-86
2024/02/27 11:47:53;;;;;;;11.73;8.50;;;8.40;81.90;;;;;;4828822;29;20137;-83
2024/02/27 11:50:37;;;;;;;10.80;8.38;;;8.50;81.90;;;;;;4825214;29;20416;-87
2024/02/27 11:53:20;;;;;;;12.40;9.10;;;8.50;81.90;;;;;;4790736;29;20034;-83
2024/02/27 11:55:51;;;;;;;10.68;9.00;;;8.50;81.90;;;;;;4807015;29;20034;-87
2024/02/27 11:58:17;;;;;;;10.82;8.05;;;8.50;81.80;;;;;;4795082;29;20045;-88
2024/02/27 12:00:44;;;;;;;12.43;9.35;;;8.60;81.80;;;;;;4789613;29;20074;-87
2024/02/27 12:03:11;;;;;;;10.82;8.10;;;8.60;81.80;;;;;;4818114;29;20031;-82
2024/02/27 12:05:37;;;;;;;11.40;8.63;;;8.60;81.70;;;;;;4790857;29;20472;-82
2024/02/27 12:08:04;;;;;;;11.80;8.98;;;8.60;81.70;;;;;;4820697;29;20373;-82
2024/02/27 12:10:34;;;;;;;12.63;9.15;;;8.70;81.80;;;;;;4814391;29;20031;-86
2024/02/27 12:12:59;;;;;;;11.85;8.65;;;8.70;81.70;;;;;;4812268;29;20054;-86
2024/02/27 12:15:26;;;;;;;12.00;8.95;;;8.70;81.60;;;;;;4815147;29;20069;-83
2024/02/27 12:17:53;;;;;;;12.02;8.95;;;8.80;81.70;;;;;;4809603;29;20034;-84
2024/02/27 12:20:20;;;;;;;11.50;8.93;;;8.80;81.70;;;;;;4797567;29;20092;-86
2024/02/27 12:22:46;;;;;;;11.57;8.55;;;8.90;81.70;;;;;;4789081;29;20086;-82
2024/02/27 12:25:15;;;;;;;11.95;8.75;;;8.90;81.70;;;;;;4799264;29;20462;-88
2024/02/27 12:27:43;;;;;;;11.52;8.88;;;8.90;81.70;;;;;;4806457;29;20050;-83
2024/02/27 12:30:12;;;;;;;11.93;8.77;;;9.00;81.70;;;;;;4822344;29;20146;-92
2024/02/27 12:32:46;;;;;;;11.90;9.13;;;9.00;82.30;;;;;;4810372;29;20563;-81
2024/02/27 12:35:16;;;;;;;10.48;8.27;;;9.00;81.60;;;;;;4821342;29;20489;-82
2024/02/27 12:37:47;;;;;;;10.65;8.55;;;9.10;81.60;;;;;;4814776;29;20030;-87
2024/02/27 12:40:15;;;;;;;12.35;8.95;;;9.10;81.60;;;;;;4802132;29;20037;-89
2024/02/27 12:42:42;;;;;;;10.70;8.38;;;9.10;81.60;;;;;;4797966;29;20569;-89
2024/02/27 12:45:10;;;;;;;11.27;8.75;;;9.20;81.60;;;;;;4814885;29;20030;-81
2024/02/27 12:47:40;;;;;;;10.50;8.63;;;9.20;81.60;;;;;;4819818;29;20042;-82
2024/02/27 12:50:08;;;;;;;10.73;8.23;;;9.30;81.60;;;;;;4809864;29;20506;-83